Airfield :
LOGIN :

Register | Disclaimer

   EN    FR    IT 

 










Legend :    VFR   Marginal VFR   IFR   Intensive IFR   Very Intensive IFR
Visi :
Ceiling :
>= 8 km
>= 3000ft
5 to 8 km
1000 to 3000 ft
1500m to 5 km
500 to 1000 ft
800 to 1500m
200 to 500 ft
< 800m
< 200 ft
Symbols :   Thunderstorms  Fog  Heavy snow  Heavy precipitations  Wind > 20 kt
SIGMETs :     Misc.  Thunderstorms  Icing  Turbulence  Mountain Waves  Volcanic Ashes






- Airport Elevation : 157 ft
- IATA code : SXF


EDDB - Berlin Schönefeld

CURRENT METAR :
  • 242250Z 27009KT CAVOK 10/10 Q1024 NOSIG

EXPIRED METARs :
  • 242220Z 26008KT 9999 FEW040 11/10 Q1024 NOSIG
  • 242150Z 25007KT 9999 SCT030 10/10 Q1024 NOSIG
  • 242120Z 25007KT 9999 SCT030 10/10 Q1024 NOSIG
  • 242050Z 25007KT 9999 FEW040 11/10 Q1024 NOSIG
  • 242020Z 26007KT 9999 FEW032CB 10/10 Q1024 NOSIG

TAF TAF EDDB
Valid from the 24 at 18:00 until the 25 at 18:00 UTC


241700Z 2418/2518 27010G25KT 9999 SCT040CB
PROB30
TEMPO 2418/2420 TSRA
BECMG 2418/2420 29009KT
BECMG 2504/2506 BKN014
BECMG 2506/2509 SCT035



MET'MAP, your aeronautical weather chart ! - Copyright ORBIFLY December 2007 - Disclaimer

ORBIFLY MET'MAP TEAM :

Programming & Development : Alexandra Zaïnal
Concept & original design : Baudouin d'Aumeries
Assistance for programming : Marc-Olivier Méhu
Technical & hardware support : Manuel Goepfert

Contact : metmap@orbifly.com




SOURCES & CREDITS :

   NOAA